createdAt,value
2018-12-24T00:00:38.408Z,0.00
2018-12-24T00:01:37.799Z,0.00
2018-12-24T00:02:38.885Z,0.00
2018-12-24T00:03:41.040Z,0.00
2018-12-24T00:04:36.444Z,0.00
2018-12-24T00:05:37.523Z,0.00
2018-12-24T00:06:39.384Z,0.00
2018-12-24T00:07:37.417Z,0.00
2018-12-24T00:08:36.024Z,0.00
2018-12-24T00:09:36.173Z,0.00
2018-12-24T00:12:13.096Z,0.00
2018-12-24T00:13:12.400Z,0.00
2018-12-24T00:14:09.405Z,0.00
2018-12-24T00:15:08.739Z,0.00
2018-12-24T00:16:13.860Z,0.00
2018-12-24T00:17:09.078Z,0.00
2018-12-24T00:18:25.895Z,0.00
2018-12-24T00:19:32.448Z,0.00
2018-12-24T00:20:10.730Z,0.00
2018-12-24T00:21:13.408Z,0.00
2018-12-24T00:22:09.991Z,0.00
2018-12-24T00:23:12.892Z,0.00
2018-12-24T00:24:31.379Z,0.00
2018-12-24T00:25:33.431Z,0.00
2018-12-24T00:26:15.404Z,0.00
2018-12-24T00:27:13.469Z,0.00
2018-12-24T00:28:34.185Z,0.00
2018-12-24T00:29:19.529Z,0.00
2018-12-24T00:30:15.236Z,0.00
2018-12-24T00:31:14.689Z,0.00
2018-12-24T00:32:15.267Z,0.00
2018-12-24T00:33:14.865Z,0.00
2018-12-24T00:34:12.377Z,0.00
2018-12-24T00:35:16.412Z,0.00
2018-12-24T00:36:14.459Z,0.00
2018-12-24T00:37:21.424Z,0.00
2018-12-24T00:38:16.882Z,0.00
2018-12-24T00:39:19.916Z,0.00
2018-12-24T00:40:18.934Z,0.00
2018-12-24T00:41:13.501Z,0.00
2018-12-24T00:42:18.167Z,0.00
2018-12-24T00:43:21.143Z,0.00
2018-12-24T00:44:15.915Z,0.00
2018-12-24T00:45:14.101Z,0.00
2018-12-24T00:46:20.880Z,0.00
2018-12-24T00:47:15.363Z,0.00
2018-12-24T00:48:30.403Z,0.00
2018-12-24T00:49:15.365Z,0.00
2018-12-24T00:50:15.871Z,0.00
2018-12-24T00:51:17.412Z,0.00
2018-12-24T00:52:16.968Z,0.00
2018-12-24T00:53:17.862Z,0.00
2018-12-24T00:54:18.360Z,0.00
2018-12-24T00:55:15.568Z,0.00
2018-12-24T00:56:15.825Z,0.00
2018-12-24T00:57:15.984Z,0.00
2018-12-24T00:58:18.289Z,0.00
2018-12-24T00:59:16.421Z,0.00
2018-12-24T01:00:32.407Z,0.00
2018-12-24T01:01:18.369Z,0.00
2018-12-24T01:02:18.388Z,0.00
2018-12-24T01:03:32.914Z,0.00
2018-12-24T01:04:21.391Z,0.00
2018-12-24T01:05:17.342Z,0.00
2018-12-24T01:06:34.376Z,0.00
2018-12-24T01:07:21.389Z,0.00
2018-12-24T01:08:19.416Z,0.00
2018-12-24T01:09:40.355Z,0.00
2018-12-24T01:10:21.946Z,0.00
2018-12-24T01:11:20.210Z,0.00
2018-12-24T01:12:24.467Z,0.00
2018-12-24T01:13:20.500Z,0.00
2018-12-24T01:14:20.366Z,0.00
2018-12-24T01:15:19.857Z,0.00
2018-12-24T01:16:22.415Z,0.00
2018-12-24T01:17:20.962Z,0.00
2018-12-24T01:18:19.291Z,0.00
2018-12-24T01:19:21.459Z,0.00
2018-12-24T01:20:22.382Z,0.00
2018-12-24T01:21:35.404Z,0.00
2018-12-24T01:22:34.908Z,0.00
2018-12-24T01:23:22.937Z,0.00
2018-12-24T01:24:20.391Z,0.00
2018-12-24T01:25:22.409Z,0.00
2018-12-24T01:26:22.405Z,0.00
2018-12-24T01:27:32.098Z,0.00
2018-12-24T01:28:23.057Z,0.00
2018-12-24T01:29:21.282Z,0.00
2018-12-24T01:30:24.462Z,0.00
2018-12-24T01:31:23.113Z,0.00
2018-12-24T01:32:25.866Z,0.00
2018-12-24T01:35:03.158Z,0.00
2018-12-24T01:36:15.142Z,0.00
2018-12-24T01:36:54.417Z,0.00
2018-12-24T01:37:59.372Z,0.00
2018-12-24T01:38:57.059Z,0.00
2018-12-24T01:39:58.583Z,0.00
2018-12-24T01:40:58.534Z,0.00
2018-12-24T01:41:57.112Z,0.00
2018-12-24T01:42:55.445Z,0.00
2018-12-24T01:43:57.141Z,0.00
2018-12-24T01:44:58.191Z,0.00
2018-12-24T01:46:03.718Z,0.00
2018-12-24T01:46:57.089Z,0.00
2018-12-24T01:47:57.426Z,0.00
2018-12-24T01:49:04.396Z,0.00
2018-12-24T01:49:59.097Z,0.00
2018-12-24T01:51:12.806Z,0.00
2018-12-24T01:51:56.999Z,0.00
2018-12-24T01:53:00.044Z,0.00
2018-12-24T01:54:19.160Z,0.00
2018-12-24T01:54:58.046Z,0.00
2018-12-24T01:56:01.104Z,0.00
2018-12-24T01:56:57.726Z,0.00
2018-12-24T01:58:01.181Z,0.00
2018-12-24T01:59:00.540Z,0.00
2018-12-24T02:00:00.171Z,0.00
2018-12-24T02:01:05.096Z,0.00
2018-12-24T02:01:58.460Z,0.00
2018-12-24T02:03:00.589Z,0.00
2018-12-24T02:04:10.701Z,0.00
2018-12-24T02:05:00.617Z,0.00
2018-12-24T02:05:59.393Z,0.00
2018-12-24T02:07:11.216Z,0.00
2018-12-24T02:08:03.085Z,0.00
2018-12-24T02:09:01.589Z,0.00
2018-12-24T02:10:04.596Z,0.00
2018-12-24T02:11:15.596Z,0.00
2018-12-24T02:12:01.568Z,0.00
2018-12-24T02:13:00.281Z,0.00
2018-12-24T02:14:01.087Z,0.00
2018-12-24T02:15:00.668Z,0.00
2018-12-24T02:16:22.776Z,0.00
2018-12-24T02:17:00.992Z,0.00
2018-12-24T02:18:03.105Z,0.00
2018-12-24T02:19:27.561Z,0.00
2018-12-24T02:20:06.561Z,0.00
2018-12-24T02:21:03.612Z,0.00
2018-12-24T02:22:03.587Z,0.00
2018-12-24T02:23:04.097Z,0.00
2018-12-24T02:24:07.046Z,0.00
2018-12-24T02:25:02.517Z,0.00
2018-12-24T02:26:04.644Z,0.00
2018-12-24T02:27:04.659Z,0.00
2018-12-24T02:28:20.044Z,0.00
2018-12-24T02:29:19.092Z,0.00
2018-12-24T02:30:04.422Z,0.00
2018-12-24T02:31:05.087Z,0.00
2018-12-24T02:32:06.230Z,0.00
2018-12-24T02:33:06.601Z,0.00
2018-12-24T02:34:04.296Z,0.00
2018-12-24T02:35:08.299Z,0.00
2018-12-24T02:36:08.607Z,0.00
2018-12-24T02:37:11.588Z,0.00
2018-12-24T02:38:06.592Z,0.00
2018-12-24T02:39:07.540Z,0.00
2018-12-24T02:40:07.052Z,0.00
2018-12-24T02:41:09.113Z,0.00
2018-12-24T02:42:08.156Z,0.00
2018-12-24T02:43:10.036Z,0.00
2018-12-24T02:44:08.604Z,0.00
2018-12-24T02:45:28.601Z,0.00
2018-12-24T02:46:07.587Z,0.00
2018-12-24T02:47:31.095Z,0.00
2018-12-24T02:48:08.092Z,0.00
2018-12-24T02:49:22.103Z,0.00
2018-12-24T02:50:07.560Z,0.00
2018-12-24T02:51:06.961Z,0.00
2018-12-24T02:52:08.599Z,0.00
2018-12-24T02:53:07.187Z,0.00
2018-12-24T02:54:11.214Z,0.00
2018-12-24T02:55:10.039Z,0.00
2018-12-24T02:56:09.754Z,0.00
2018-12-24T02:57:10.192Z,0.00
2018-12-24T02:58:12.091Z,0.00
2018-12-24T02:59:17.091Z,0.00
2018-12-24T03:00:10.047Z,0.00
2018-12-24T03:01:10.585Z,0.00
2018-12-24T03:02:12.591Z,0.00
2018-12-24T03:03:09.045Z,0.00
2018-12-24T03:04:13.087Z,0.00
2018-12-24T03:05:13.092Z,0.00
2018-12-24T03:06:34.086Z,0.00
2018-12-24T03:07:12.083Z,0.00
2018-12-24T03:08:11.589Z,0.00
2018-12-24T03:09:12.424Z,0.00
2018-12-24T03:10:12.098Z,0.00
2018-12-24T03:11:12.102Z,0.00
2018-12-24T03:12:11.588Z,0.00
2018-12-24T03:13:11.802Z,0.00
2018-12-24T03:14:33.628Z,0.00
2018-12-24T03:16:45.829Z,0.00
2018-12-24T03:17:44.824Z,0.00
2018-12-24T03:18:46.283Z,0.00
2018-12-24T03:19:44.639Z,0.00
2018-12-24T03:20:47.214Z,0.00
2018-12-24T03:21:45.855Z,0.00
2018-12-24T03:22:50.594Z,0.00
2018-12-24T03:23:48.321Z,0.00
2018-12-24T03:24:46.328Z,0.00
2018-12-24T03:25:47.145Z,0.00
2018-12-24T03:26:47.782Z,0.00
2018-12-24T03:28:07.821Z,0.00
2018-12-24T03:29:00.819Z,0.00
2018-12-24T03:29:50.199Z,0.00
2018-12-24T03:30:49.323Z,0.00
2018-12-24T03:31:47.326Z,0.00
2018-12-24T03:32:49.341Z,0.00
2018-12-24T03:33:45.922Z,0.00
2018-12-24T03:34:47.121Z,0.00
2018-12-24T03:35:48.033Z,0.00
2018-12-24T03:36:54.355Z,0.00
2018-12-24T03:37:48.365Z,0.00
2018-12-24T03:38:50.828Z,0.00
2018-12-24T03:39:53.023Z,0.00
2018-12-24T03:40:51.770Z,0.00
2018-12-24T03:41:52.826Z,0.00
2018-12-24T03:43:12.129Z,0.00
2018-12-24T03:44:25.324Z,0.00
2018-12-24T03:44:51.356Z,0.00
2018-12-24T03:45:48.009Z,0.00
2018-12-24T03:46:50.816Z,0.00
2018-12-24T03:47:48.300Z,0.00
2018-12-24T03:48:50.323Z,0.00
2018-12-24T03:50:03.327Z,0.00
2018-12-24T03:50:48.772Z,0.00
2018-12-24T03:51:52.290Z,0.00
2018-12-24T03:52:49.148Z,0.00
2018-12-24T03:53:53.317Z,0.00
2018-12-24T03:55:05.325Z,0.00
2018-12-24T03:55:58.334Z,0.00
2018-12-24T03:56:49.958Z,0.00
2018-12-24T03:57:50.050Z,0.00
2018-12-24T03:58:50.274Z,0.00
2018-12-24T03:59:50.485Z,0.00
2018-12-24T04:00:54.330Z,0.00
2018-12-24T04:01:52.875Z,0.00
2018-12-24T04:02:51.041Z,0.00
2018-12-24T04:03:53.776Z,0.00
2018-12-24T04:05:01.301Z,0.00
2018-12-24T04:05:51.620Z,0.00
2018-12-24T04:06:51.713Z,0.00
2018-12-24T04:07:52.353Z,0.00
2018-12-24T04:09:14.823Z,0.00
2018-12-24T04:09:53.288Z,0.00
2018-12-24T04:10:55.282Z,0.00
2018-12-24T04:11:54.339Z,0.00
2018-12-24T04:12:56.585Z,0.00
2018-12-24T04:13:54.823Z,0.00
2018-12-24T04:14:59.278Z,0.00
2018-12-24T04:15:55.348Z,0.00
2018-12-24T04:16:55.286Z,0.00
2018-12-24T04:17:55.269Z,0.00
2018-12-24T04:18:56.785Z,0.00
2018-12-24T04:19:55.877Z,0.00
2018-12-24T04:20:55.875Z,0.00
2018-12-24T04:22:27.791Z,0.00
2018-12-24T04:23:05.577Z,0.00
2018-12-24T04:23:56.394Z,0.00
2018-12-24T04:24:55.792Z,0.00
2018-12-24T04:25:56.167Z,0.00
2018-12-24T04:26:57.324Z,0.00
2018-12-24T04:28:03.332Z,0.00
2018-12-24T04:28:57.618Z,0.00
2018-12-24T04:29:58.543Z,0.00
2018-12-24T04:30:56.036Z,0.00
2018-12-24T04:31:57.226Z,0.00
2018-12-24T04:32:57.418Z,0.00
2018-12-24T04:33:58.779Z,0.00
2018-12-24T04:35:04.326Z,0.00
2018-12-24T04:35:57.899Z,0.00
2018-12-24T04:36:57.363Z,0.00
2018-12-24T04:37:58.824Z,0.00
2018-12-24T04:39:13.325Z,0.00
2018-12-24T04:39:58.311Z,0.00
2018-12-24T04:41:30.455Z,0.00
2018-12-24T04:41:59.927Z,0.00
2018-12-24T04:42:58.249Z,0.00
2018-12-24T04:44:14.615Z,0.00
2018-12-24T04:45:01.351Z,0.00
2018-12-24T04:46:00.388Z,0.00
2018-12-24T04:46:58.866Z,0.00
2018-12-24T04:48:00.329Z,0.00
2018-12-24T04:49:04.107Z,0.00
2018-12-24T04:50:01.781Z,0.00
2018-12-24T04:50:59.480Z,0.00
2018-12-24T04:52:02.588Z,0.00
2018-12-24T04:53:02.490Z,0.00
2018-12-24T04:54:09.279Z,0.00
2018-12-24T04:55:15.826Z,0.00
2018-12-24T04:56:01.778Z,0.00
2018-12-24T04:57:03.776Z,0.00
2018-12-24T04:58:00.619Z,0.00
2018-12-24T04:59:04.324Z,0.00
2018-12-24T05:00:01.096Z,0.00
2018-12-24T05:01:16.826Z,0.00
2018-12-24T05:02:26.720Z,0.00
2018-12-24T05:03:05.354Z,0.00
2018-12-24T05:04:05.639Z,0.00
2018-12-24T05:05:01.899Z,0.00
2018-12-24T05:06:03.845Z,0.00
2018-12-24T05:07:05.838Z,0.00
2018-12-24T05:08:11.285Z,0.00
2018-12-24T05:09:18.327Z,0.00
2018-12-24T05:10:04.334Z,0.00
2018-12-24T05:11:06.837Z,0.00
2018-12-24T05:12:04.860Z,0.00
2018-12-24T05:13:04.840Z,0.00
2018-12-24T05:14:10.789Z,0.00
2018-12-24T05:15:07.334Z,0.00
2018-12-24T05:16:16.679Z,0.00
2018-12-24T05:17:11.786Z,0.00
2018-12-24T05:18:08.603Z,0.00
2018-12-24T05:19:06.788Z,0.00
2018-12-24T05:20:21.837Z,0.00
2018-12-24T05:21:07.337Z,0.00
2018-12-24T05:22:29.324Z,0.00
2018-12-24T05:23:12.824Z,0.00
2018-12-24T05:24:06.884Z,0.00
2018-12-24T05:25:06.397Z,0.00
2018-12-24T05:26:07.376Z,0.00
2018-12-24T05:27:07.845Z,0.00
2018-12-24T05:28:09.081Z,0.00
2018-12-24T05:29:05.878Z,0.00
2018-12-24T05:30:12.986Z,0.00
2018-12-24T05:31:09.326Z,0.00
2018-12-24T05:32:43.326Z,0.00
2018-12-24T05:33:06.651Z,0.00
2018-12-24T05:34:06.852Z,0.00
2018-12-24T05:35:09.807Z,0.00
2018-12-24T05:36:09.285Z,0.00
2018-12-24T05:37:11.328Z,0.00
2018-12-24T05:38:20.321Z,0.00
2018-12-24T05:40:45.787Z,0.00
2018-12-24T05:41:43.016Z,0.00
2018-12-24T05:42:40.212Z,0.00
2018-12-24T05:43:49.260Z,0.00
2018-12-24T05:44:53.469Z,0.00
2018-12-24T05:45:45.507Z,0.00
2018-12-24T05:46:40.806Z,0.00
2018-12-24T05:47:41.031Z,0.00
2018-12-24T05:48:44.480Z,0.00
2018-12-24T05:49:44.467Z,0.00
2018-12-24T05:50:53.510Z,0.00
2018-12-24T05:52:06.514Z,0.00
2018-12-24T05:52:43.512Z,0.00
2018-12-24T05:53:46.047Z,0.00
2018-12-24T05:54:46.008Z,0.00
2018-12-24T05:55:44.022Z,0.00
2018-12-24T05:56:49.057Z,0.00
2018-12-24T05:57:47.067Z,0.00
2018-12-24T05:58:45.519Z,0.00
2018-12-24T05:59:43.968Z,0.00
2018-12-24T06:00:43.208Z,0.00
2018-12-24T06:01:59.283Z,0.00
2018-12-24T06:02:50.548Z,0.00
2018-12-24T06:03:48.478Z,0.00
2018-12-24T06:05:06.009Z,0.00
2018-12-24T06:06:09.242Z,0.00
2018-12-24T06:07:08.070Z,0.00
2018-12-24T06:07:46.567Z,0.00
2018-12-24T06:08:47.476Z,0.00
2018-12-24T06:09:52.566Z,0.00
2018-12-24T06:10:51.523Z,0.00
2018-12-24T06:12:03.019Z,0.00
2018-12-24T06:13:08.296Z,0.00
2018-12-24T06:13:57.992Z,0.00
2018-12-24T06:14:47.471Z,0.00
2018-12-24T06:15:49.534Z,0.00
2018-12-24T06:16:47.622Z,0.00
2018-12-24T06:17:50.039Z,0.00
2018-12-24T06:18:49.055Z,0.00
2018-12-24T06:19:48.534Z,0.00
2018-12-24T06:20:49.554Z,0.00
2018-12-24T06:21:50.336Z,0.00
2018-12-24T06:22:49.532Z,0.00
2018-12-24T06:23:54.619Z,0.00
2018-12-24T06:24:49.030Z,0.00
2018-12-24T06:25:51.530Z,0.00
2018-12-24T06:26:50.489Z,0.00
2018-12-24T06:27:49.184Z,0.00
2018-12-24T06:28:50.013Z,0.00
2018-12-24T06:29:50.035Z,0.00
2018-12-24T06:30:48.495Z,0.00
2018-12-24T06:31:50.544Z,0.00
2018-12-24T06:32:48.882Z,0.00
2018-12-24T06:33:49.090Z,0.00
2018-12-24T06:34:50.987Z,0.00
2018-12-24T06:35:53.166Z,0.00
2018-12-24T06:36:56.575Z,0.00
2018-12-24T06:37:49.791Z,0.00
2018-12-24T06:38:51.518Z,0.00
2018-12-24T06:39:50.095Z,0.00
2018-12-24T06:40:54.011Z,0.00
2018-12-24T06:42:01.194Z,0.00
2018-12-24T06:42:52.520Z,0.00
2018-12-24T06:43:52.519Z,0.00
2018-12-24T06:44:59.012Z,0.00
2018-12-24T06:45:56.012Z,0.00
2018-12-24T06:46:52.219Z,0.00
2018-12-24T06:47:51.474Z,0.00
2018-12-24T06:48:53.581Z,0.00
2018-12-24T06:49:51.822Z,0.00
2018-12-24T06:50:53.520Z,0.00
2018-12-24T06:51:54.017Z,0.00
2018-12-24T06:52:52.262Z,0.00
2018-12-24T06:53:56.011Z,4.00
2018-12-24T06:54:55.469Z,4.00
2018-12-24T06:55:52.692Z,0.00
2018-12-24T06:56:53.862Z,8.00
2018-12-24T06:57:54.525Z,8.00
2018-12-24T06:58:53.113Z,8.00
2018-12-24T06:59:55.011Z,8.00
2018-12-24T07:00:57.012Z,8.00
2018-12-24T07:01:53.605Z,8.00
2018-12-24T07:02:55.512Z,12.00
2018-12-24T07:03:55.473Z,16.00
2018-12-24T07:04:56.016Z,20.00
2018-12-24T07:05:56.343Z,24.00
2018-12-24T07:06:56.519Z,24.00
2018-12-24T07:07:56.550Z,24.00
2018-12-24T07:08:54.882Z,28.00
2018-12-24T07:10:02.478Z,32.00
2018-12-24T07:10:56.002Z,40.00
2018-12-24T07:11:57.414Z,36.00
2018-12-24T07:12:59.874Z,48.00
2018-12-24T07:13:56.911Z,60.00
2018-12-24T07:14:56.882Z,60.00
2018-12-24T07:15:59.967Z,56.00
2018-12-24T07:16:57.024Z,68.00
2018-12-24T07:18:03.027Z,76.00
2018-12-24T07:19:00.512Z,88.00
2018-12-24T07:19:58.527Z,96.00
2018-12-24T07:21:12.578Z,100.00
2018-12-24T07:21:59.975Z,128.00
2018-12-24T07:23:01.034Z,168.00
2018-12-24T07:23:59.915Z,204.00
2018-12-24T07:24:59.019Z,240.00
2018-12-24T07:25:58.720Z,272.00
2018-12-24T07:26:57.976Z,308.00
2018-12-24T07:28:01.066Z,344.00
2018-12-24T07:29:00.020Z,384.00
2018-12-24T07:30:00.022Z,440.00
2018-12-24T07:31:02.619Z,504.00
2018-12-24T07:32:00.569Z,588.00
2018-12-24T07:33:01.014Z,688.00
2018-12-24T07:34:15.040Z,760.00
2018-12-24T07:35:07.011Z,812.00
2018-12-24T07:36:01.078Z,824.00
2018-12-24T07:36:59.544Z,828.00
2018-12-24T07:37:59.751Z,800.00
2018-12-24T07:38:59.934Z,724.00
2018-12-24T07:40:00.265Z,672.00
2018-12-24T07:41:16.013Z,696.00
2018-12-24T07:42:00.495Z,724.00
2018-12-24T07:43:04.514Z,764.00
2018-12-24T07:44:00.853Z,808.00
2018-12-24T07:45:01.977Z,876.00
2018-12-24T07:46:01.239Z,936.00
2018-12-24T07:47:01.330Z,968.00
2018-12-24T07:48:01.574Z,1008.00
2018-12-24T07:49:10.476Z,1032.00
2018-12-24T07:50:24.516Z,984.00
2018-12-24T07:51:02.606Z,968.00
2018-12-24T07:52:07.070Z,856.00
2018-12-24T07:53:14.539Z,724.00
2018-12-24T07:54:04.576Z,668.00
2018-12-24T07:55:04.716Z,660.00
2018-12-24T07:56:04.965Z,620.00
2018-12-24T07:57:04.852Z,588.00
2018-12-24T07:58:05.343Z,600.00
2018-12-24T07:59:05.358Z,568.00
2018-12-24T08:00:07.225Z,544.00
2018-12-24T08:01:03.869Z,640.00
2018-12-24T08:02:04.964Z,612.00
2018-12-24T08:03:08.590Z,584.00
2018-12-24T08:04:11.201Z,660.00
2018-12-24T08:05:05.013Z,676.00
2018-12-24T08:06:11.036Z,732.00
2018-12-24T08:07:04.624Z,896.00
2018-12-24T08:08:20.517Z,1032.00
2018-12-24T08:09:16.692Z,1028.00
2018-12-24T08:10:10.058Z,952.00
2018-12-24T08:11:05.281Z,836.00
2018-12-24T08:12:05.507Z,728.00
2018-12-24T08:13:06.700Z,696.00
2018-12-24T08:14:09.541Z,716.00
2018-12-24T08:15:07.173Z,732.00
2018-12-24T08:16:10.500Z,752.00
2018-12-24T08:17:13.024Z,852.00
2018-12-24T08:18:08.021Z,964.00
2018-12-24T08:19:08.514Z,1000.00
2018-12-24T08:20:08.536Z,1028.00
2018-12-24T08:21:14.039Z,1220.00
2018-12-24T08:22:15.027Z,1304.00
2018-12-24T08:23:09.993Z,1416.00
2018-12-24T08:24:08.472Z,1616.00
2018-12-24T08:25:09.570Z,1776.00
2018-12-24T08:26:08.901Z,1696.00
2018-12-24T08:27:09.541Z,1680.00
2018-12-24T08:28:24.017Z,1708.00
2018-12-24T08:29:10.033Z,1516.00
2018-12-24T08:30:10.041Z,1272.00
2018-12-24T08:31:08.619Z,1268.00
2018-12-24T08:32:11.447Z,1228.00
2018-12-24T08:33:10.516Z,1288.00
2018-12-24T08:34:11.028Z,1368.00
2018-12-24T08:35:11.066Z,1504.00
2018-12-24T08:36:15.025Z,1600.00
2018-12-24T08:37:17.559Z,1672.00
2018-12-24T08:38:11.520Z,1716.00
2018-12-24T08:39:11.472Z,1732.00
2018-12-24T08:40:13.013Z,1592.00
2018-12-24T08:41:14.017Z,1748.00
2018-12-24T08:42:10.338Z,1900.00
2018-12-24T08:43:12.517Z,2016.00
2018-12-24T08:44:10.712Z,2120.00
2018-12-24T08:45:18.534Z,2344.00
2018-12-24T08:46:13.171Z,2684.00
2018-12-24T08:47:13.023Z,2664.00
2018-12-24T08:48:11.370Z,2572.00
2018-12-24T08:49:13.027Z,2648.00
2018-12-24T08:50:12.876Z,2820.00
2018-12-24T08:51:40.524Z,3016.00
2018-12-24T08:52:15.515Z,3172.00
2018-12-24T08:53:12.141Z,3176.00
2018-12-24T08:54:13.977Z,3184.00
2018-12-24T08:55:15.759Z,3360.00
2018-12-24T08:56:33.736Z,3556.00
2018-12-24T08:57:17.548Z,4148.00
2018-12-24T08:58:15.014Z,4936.00
2018-12-24T08:59:13.361Z,5612.00
2018-12-24T09:00:18.977Z,6556.00
2018-12-24T09:01:17.517Z,7788.00
2018-12-24T09:02:17.515Z,9100.00
2018-12-24T09:03:14.194Z,9244.00
2018-12-24T09:04:14.369Z,9600.00
2018-12-24T09:05:19.524Z,9860.00
2018-12-24T09:06:18.572Z,11316.00
2018-12-24T09:07:14.927Z,30304.00
2018-12-24T09:08:22.011Z,43808.00
2018-12-24T09:09:15.353Z,37280.00
2018-12-24T09:10:23.022Z,75072.00
2018-12-24T09:11:17.930Z,47488.00
2018-12-24T09:12:17.532Z,21312.00
2018-12-24T09:13:18.478Z,30240.00
2018-12-24T09:14:17.212Z,60256.00
2018-12-24T09:15:18.532Z,16128.00
2018-12-24T09:16:16.671Z,16864.00
2018-12-24T09:17:16.793Z,71520.00
2018-12-24T09:18:20.515Z,74912.00
2018-12-24T09:19:17.094Z,79648.00
2018-12-24T09:20:17.358Z,67040.00
2018-12-24T09:21:19.027Z,43424.00
2018-12-24T09:22:19.543Z,17856.00
2018-12-24T09:23:20.536Z,76832.00
2018-12-24T09:24:20.032Z,74688.00
2018-12-24T09:25:18.279Z,71360.00
2018-12-24T09:26:18.508Z,82048.00
2018-12-24T09:27:21.497Z,80448.00
2018-12-24T09:28:34.541Z,83616.00
2018-12-24T09:29:35.053Z,24992.00
2018-12-24T09:30:23.019Z,17472.00
2018-12-24T09:31:19.506Z,83008.00
2018-12-24T09:32:25.683Z,84096.00
2018-12-24T09:33:21.532Z,83936.00
2018-12-24T09:34:22.971Z,86816.00
2018-12-24T09:35:32.172Z,88160.00
2018-12-24T09:36:20.384Z,87360.00
2018-12-24T09:37:45.054Z,86624.00
2018-12-24T09:38:22.603Z,85120.00
2018-12-24T09:39:22.197Z,84640.00
2018-12-24T09:40:23.908Z,86272.00
2018-12-24T09:41:21.627Z,36800.00
2018-12-24T09:42:22.643Z,27008.00
2018-12-24T09:43:25.696Z,74400.00
2018-12-24T09:46:07.629Z,42656.00
2018-12-24T09:47:05.749Z,86112.00
2018-12-24T09:48:09.083Z,83328.00
2018-12-24T09:49:08.430Z,40160.00
2018-12-24T09:50:12.159Z,18368.00
2018-12-24T09:51:23.581Z,16104.00
2018-12-24T09:52:10.884Z,14400.00
2018-12-24T09:53:10.092Z,7708.00
2018-12-24T09:54:27.951Z,5956.00
2018-12-24T09:55:09.192Z,7932.00
2018-12-24T09:56:12.389Z,10164.00
2018-12-24T09:57:10.135Z,9156.00
2018-12-24T10:35:01.413Z,6996.00
2018-12-24T10:35:58.024Z,6640.00
2018-12-24T10:36:57.977Z,5296.00
2018-12-24T10:41:46.347Z,5948.00
2018-12-24T10:44:15.652Z,7792.00
2018-12-24T10:44:38.803Z,8992.00
2018-12-24T10:45:36.223Z,9020.00
2018-12-24T10:48:15.333Z,4764.00
2018-12-24T10:49:08.695Z,4912.00
2018-12-24T10:50:11.708Z,4712.00
2018-12-24T10:51:08.022Z,4204.00
2018-12-24T10:52:11.880Z,3880.00
2018-12-24T10:53:11.343Z,4668.00
2018-12-24T10:54:12.345Z,5700.00
2018-12-24T10:55:10.349Z,6524.00
2018-12-24T10:56:09.710Z,6080.00
2018-12-24T10:57:12.806Z,6776.00
2018-12-24T10:58:31.800Z,8968.00
2018-12-24T10:59:37.872Z,10652.00
2018-12-24T11:00:15.351Z,9516.00
2018-12-24T11:01:11.363Z,6948.00
2018-12-24T11:02:12.375Z,5568.00
2018-12-24T11:03:11.859Z,5416.00
2018-12-24T11:04:10.214Z,5124.00
2018-12-24T11:05:10.411Z,4976.00
2018-12-24T11:06:12.350Z,4960.00
2018-12-24T11:07:10.820Z,5624.00
2018-12-24T11:08:12.828Z,5992.00
2018-12-24T11:09:11.166Z,5224.00
2018-12-24T11:10:15.360Z,5356.00
2018-12-24T11:11:15.886Z,6004.00
2018-12-24T11:12:11.717Z,7440.00
2018-12-24T11:13:11.956Z,22784.00
2018-12-24T11:14:13.868Z,7528.00
2018-12-24T11:15:13.854Z,6596.00
2018-12-24T11:16:12.457Z,5768.00
2018-12-24T11:17:12.667Z,6324.00
2018-12-24T11:18:13.559Z,7068.00
2018-12-24T11:19:14.839Z,7396.00
2018-12-24T11:20:14.859Z,8048.00
2018-12-24T11:21:14.845Z,8792.00
2018-12-24T11:22:15.328Z,11316.00
2018-12-24T11:23:13.704Z,13088.00
2018-12-24T11:24:17.863Z,12868.00
2018-12-24T11:25:14.086Z,14580.00
2018-12-24T11:26:15.834Z,28832.00
2018-12-24T11:27:16.349Z,26496.00
2018-12-24T11:28:14.567Z,28608.00
2018-12-24T11:29:15.778Z,22240.00
2018-12-24T11:30:14.992Z,28640.00
2018-12-24T11:31:15.199Z,30016.00
2018-12-24T11:32:15.410Z,32192.00
2018-12-24T11:33:15.621Z,26848.00
2018-12-24T11:34:17.340Z,21216.00
2018-12-24T11:35:17.832Z,19008.00
2018-12-24T11:36:19.843Z,24960.00
2018-12-24T11:37:16.299Z,28032.00
2018-12-24T11:38:16.547Z,31520.00
2018-12-24T11:39:18.350Z,30496.00
2018-12-24T11:40:16.813Z,36512.00
2018-12-24T11:41:18.833Z,20576.00
2018-12-24T11:42:18.194Z,37536.00
2018-12-24T11:43:18.444Z,23872.00
2018-12-24T11:44:20.185Z,20288.00
2018-12-24T11:45:21.371Z,22208.00
2018-12-24T11:46:19.834Z,12448.00
2018-12-24T11:47:19.866Z,11584.00
2018-12-24T11:48:19.833Z,18432.00
2018-12-24T11:49:18.412Z,12404.00
2018-12-24T11:50:20.351Z,23968.00
2018-12-24T11:51:20.838Z,21696.00
2018-12-24T11:52:20.830Z,14588.00
2018-12-24T11:53:20.926Z,13664.00
2018-12-24T11:54:19.323Z,14556.00
2018-12-24T11:55:19.543Z,15892.00
2018-12-24T11:56:21.330Z,14260.00
2018-12-24T11:57:21.852Z,13632.00
2018-12-24T11:58:20.069Z,12936.00
2018-12-24T11:59:20.277Z,11948.00
2018-12-24T12:00:22.342Z,11760.00
2018-12-24T12:01:22.334Z,11488.00
2018-12-24T12:02:22.330Z,11256.00
2018-12-24T12:03:21.038Z,10388.00
2018-12-24T12:04:21.246Z,10588.00
2018-12-24T12:05:21.447Z,10132.00
2018-12-24T12:06:23.331Z,9836.00
2018-12-24T12:07:23.333Z,9212.00
2018-12-24T12:08:21.928Z,9224.00
2018-12-24T12:09:22.129Z,8948.00
2018-12-24T12:10:23.483Z,8740.00
2018-12-24T12:11:22.597Z,8368.00
2018-12-24T12:12:22.688Z,8292.00
2018-12-24T12:13:22.897Z,8296.00
2018-12-24T12:14:23.126Z,8924.00
2018-12-24T12:15:23.315Z,10776.00
2018-12-24T12:16:23.529Z,14212.00
2018-12-24T12:17:23.725Z,24192.00
2018-12-24T12:18:23.936Z,39968.00
2018-12-24T12:19:24.154Z,46496.00
2018-12-24T12:20:25.359Z,48896.00
2018-12-24T12:21:24.584Z,46336.00
2018-12-24T12:22:27.086Z,49600.00
2018-12-24T12:23:26.868Z,48928.00
2018-12-24T12:24:25.096Z,48544.00
2018-12-24T12:25:26.918Z,47584.00
2018-12-24T12:26:41.386Z,47264.00
2018-12-24T12:27:29.336Z,45408.00
2018-12-24T12:28:27.381Z,44384.00
2018-12-24T12:29:41.861Z,44544.00
2018-12-24T12:30:48.111Z,43200.00
2018-12-24T12:31:27.839Z,41344.00
2018-12-24T12:32:48.469Z,41408.00
2018-12-24T12:33:30.951Z,39616.00
2018-12-24T12:34:26.786Z,38400.00
2018-12-24T12:35:32.786Z,37600.00
2018-12-24T12:36:43.567Z,36832.00
2018-12-24T12:37:28.837Z,35296.00
2018-12-24T12:38:29.788Z,25152.00
2018-12-24T12:39:33.782Z,22464.00
2018-12-24T12:40:29.336Z,6432.00
2018-12-24T12:41:29.837Z,6512.00
2018-12-24T12:42:33.864Z,6632.00
2018-12-24T12:43:29.783Z,6636.00
2018-12-24T12:44:36.344Z,7428.00
2018-12-24T12:45:28.650Z,7388.00
2018-12-24T12:46:28.817Z,7232.00
2018-12-24T12:47:29.080Z,6868.00
2018-12-24T12:48:44.872Z,5864.00
2018-12-24T12:49:40.941Z,5032.00
2018-12-24T12:50:30.147Z,4852.00
2018-12-24T12:51:31.365Z,4700.00
2018-12-24T12:52:33.346Z,4776.00
2018-12-24T12:53:30.045Z,4196.00
2018-12-24T12:54:30.307Z,3440.00
2018-12-24T12:55:30.495Z,2948.00
2018-12-24T12:56:32.394Z,2812.00
2018-12-24T12:57:30.937Z,2720.00
2018-12-24T12:58:31.138Z,2636.00
2018-12-24T12:59:31.343Z,2476.00
2018-12-24T13:00:31.555Z,2296.00
2018-12-24T13:01:31.767Z,2148.00
2018-12-24T13:02:31.976Z,2052.00
2018-12-24T13:03:32.190Z,1920.00
2018-12-24T13:04:32.410Z,1868.00
2018-12-24T13:05:32.620Z,1860.00
2018-12-24T13:06:34.344Z,1992.00
2018-12-24T13:07:33.047Z,2064.00
2018-12-24T13:08:33.250Z,2136.00
2018-12-24T13:09:37.336Z,2204.00
2018-12-24T13:10:35.338Z,2228.00
2018-12-24T13:11:33.790Z,2204.00
2018-12-24T13:12:35.840Z,2140.00
2018-12-24T13:13:36.874Z,2064.00
2018-12-24T13:14:34.446Z,1980.00
2018-12-24T13:15:34.624Z,1920.00
2018-12-24T13:16:35.872Z,1868.00
2018-12-24T13:17:36.837Z,1828.00
2018-12-24T13:18:36.878Z,1880.00
2018-12-24T13:19:36.841Z,1964.00
2018-12-24T13:20:37.344Z,1968.00
2018-12-24T13:21:35.728Z,2116.00
2018-12-24T13:22:37.800Z,2044.00
2018-12-24T13:23:36.063Z,1956.00
2018-12-24T13:24:37.846Z,1908.00
2018-12-24T13:25:36.418Z,1996.00
2018-12-24T13:26:38.345Z,1988.00
2018-12-24T13:27:38.369Z,2004.00
2018-12-24T13:28:38.195Z,2088.00
2018-12-24T13:29:38.848Z,2280.00
2018-12-24T13:30:38.840Z,2424.00
2018-12-24T13:31:39.927Z,2304.00
2018-12-24T13:32:39.370Z,2148.00
2018-12-24T13:33:37.800Z,1980.00
2018-12-24T13:34:39.868Z,1944.00
2018-12-24T13:35:39.836Z,1888.00